Weather Data

Pearl Creek Farm: 8878 N Farm Road 75, Walnut Grove MO 65770

<== Previous Day (Sunday 27 Aug 2017) | Next Day (Tuesday 29 Aug 2017) ==>

Summary Precipitation Data For Monday 28 August 2017

ElementValueUnits
Precipitation0.02"
NotesThunderstorms in area last night. We felt a few drops around dusk.
SourcePearl Creek Farm

Summary Temperature Data For Monday 28 August 2017

ElementValueUnits
High Temperature81 oF
Low Temperature66 oF
Average Temperature71 oF
High Humidity100 %
Low Humidity54 %
Average Humidity82 %
SourceSpringfield-Branson National Airport (SGF)

Detail Temperature Data For Monday 28 August 2017

Date / TimeTemp (F)RH (%)Dew Pt (F)Report Date / TimeSource
2017-08-28 01:52:00 66 100 66.0 2017-12-29 17:00:26.17417 Springfield-Branson National Airport (SGF)
2017-08-28 02:52:00 66 100 66.0 2017-12-29 17:00:26.17417 Springfield-Branson National Airport (SGF)
2017-08-28 03:52:00 66 100 66.0 2017-12-29 17:00:26.17417 Springfield-Branson National Airport (SGF)
2017-08-28 04:52:00 66 100 66.0 2017-12-29 17:00:26.17417 Springfield-Branson National Airport (SGF)
2017-08-28 05:52:00 66 100 66.0 2017-12-29 17:00:26.17417 Springfield-Branson National Airport (SGF)
2017-08-28 06:52:00 66 100 66.0 2017-12-29 17:00:26.17417 Springfield-Branson National Airport (SGF)
2017-08-28 00:52:00 67 97 66.0 2017-12-29 17:00:26.17417 Springfield-Branson National Airport (SGF)
2017-08-28 07:52:00 67 97 66.0 2017-12-29 17:00:26.17417 Springfield-Branson National Airport (SGF)
2017-08-28 08:52:00 69 90 66.0 2017-12-29 17:00:26.17417 Springfield-Branson National Airport (SGF)
2017-08-28 09:52:00 73 81 67.0 2017-12-29 17:00:26.17417 Springfield-Branson National Airport (SGF)
2017-08-28 10:52:00 77 71 67.0 2017-12-29 17:00:26.17417 Springfield-Branson National Airport (SGF)
2017-08-28 11:52:00 76 72 66.0 2017-12-29 17:00:26.17417 Springfield-Branson National Airport (SGF)
2017-08-28 12:52:00 80 64 67.0 2017-12-29 17:00:26.17417 Springfield-Branson National Airport (SGF)
2017-08-28 13:52:00 78 64 65.0 2017-12-29 17:00:26.17417 Springfield-Branson National Airport (SGF)
2017-08-28 14:52:00 81 58 65.0 2017-12-29 17:00:26.17417 Springfield-Branson National Airport (SGF)
2017-08-28 15:52:00 81 54 63.0 2017-12-29 17:00:26.17417 Springfield-Branson National Airport (SGF)
2017-08-28 16:52:00 80 54 62.0 2017-12-29 17:00:26.17417 Springfield-Branson National Airport (SGF)
2017-08-28 17:52:00 78 60 63.0 2017-12-29 17:00:26.17417 Springfield-Branson National Airport (SGF)
2017-08-28 18:52:00 73 74 64.0 2017-12-29 17:00:26.17417 Springfield-Branson National Airport (SGF)
2017-08-28 19:52:00 70 82 64.0 2017-12-29 17:00:26.17417 Springfield-Branson National Airport (SGF)
2017-08-28 20:52:00 69 84 64.0 2017-12-29 17:00:26.17417 Springfield-Branson National Airport (SGF)
2017-08-28 21:52:00 68 87 64.0 2017-12-29 17:00:26.17417 Springfield-Branson National Airport (SGF)
2017-08-28 22:52:00 66 90 63.0 2017-12-29 17:00:26.17417 Springfield-Branson National Airport (SGF)
2017-08-28 23:52:00 66 93 64.0 2017-12-29 17:00:26.17417 Springfield-Branson National Airport (SGF)

A total of 24 rows are displayed.